Time;durP1;ratioP1;P1;durP2;ratioP2;P2;SDS_P1;SDS_P2;PMS_P1;PMS_P2;Temp;Humidity;BMP_temperature;BMP_pressure;BME280_temperature;BME280_humidity;BME280_pressure;Samples;Min_cycle;Max_cycle;Signal;HPM_P1;HPM_P2
2022/10/02 00:01:01;;;;;;;106.60;99.32;;;;;;;;;;10218647;28;20048;-72
2022/10/02 00:06:02;;;;;;;105.78;99.40;;;;;;;;;;10239339;28;20057;-71
2022/10/02 00:10:59;;;;;;;113.40;106.65;;;;;;;;;;10234929;28;20045;-71
2022/10/02 00:15:55;;;;;;;115.95;108.88;;;;;;;;;;10231800;28;20044;-71
2022/10/02 00:21:17;;;;;;;114.10;106.93;;;;;;;;;;10228391;28;20060;-70
2022/10/02 00:26:17;;;;;;;117.82;110.75;;;;;;;;;;10228557;28;20083;-71
2022/10/02 00:31:17;;;;;;;104.28;97.80;;;;;;;;;;10233078;28;20041;-71
2022/10/02 00:36:21;;;;;;;107.18;100.93;;;;;;;;;;10226311;28;20053;-71
2022/10/02 00:41:36;;;;;;;88.47;82.97;;;;;;;;;;10232229;28;20392;-71
2022/10/02 00:46:35;;;;;;;96.05;90.07;;;;;;;;;;10230647;28;20425;-71
2022/10/02 00:51:32;;;;;;;93.85;87.70;;;;;;;;;;10228776;28;20053;-71
2022/10/02 00:56:32;;;;;;;98.53;92.47;;;;;;;;;;10225819;28;20056;-72
2022/10/02 01:01:40;;;;;;;100.32;94.32;;;;;;;;;;10232790;28;20054;-72
2022/10/02 01:06:36;;;;;;;96.75;91.00;;;;;;;;;;10231031;28;20085;-71
2022/10/02 01:11:33;;;;;;;98.25;92.20;;;;;;;;;;10226786;28;20049;-71
2022/10/02 01:16:31;;;;;;;100.88;94.43;;;;;;;;;;10227098;28;20049;-72
2022/10/02 01:21:40;;;;;;;87.38;80.63;;;;;;;;;;10232292;28;20116;-72
2022/10/02 01:26:36;;;;;;;103.72;96.53;;;;;;;;;;10231655;28;20053;-71
2022/10/02 01:31:34;;;;;;;102.45;95.28;;;;;;;;;;10232553;28;20415;-71
2022/10/02 01:36:31;;;;;;;105.85;98.97;;;;;;;;;;10231405;28;20048;-71
2022/10/02 01:41:28;;;;;;;103.72;96.80;;;;;;;;;;10230370;28;20049;-72
2022/10/02 01:46:30;;;;;;;108.47;101.53;;;;;;;;;;10236596;28;20356;-72
2022/10/02 01:51:50;;;;;;;108.78;102.07;;;;;;;;;;10226682;28;20046;-71
2022/10/02 01:56:46;;;;;;;110.65;103.75;;;;;;;;;;10210631;28;20057;-71
2022/10/02 02:01:46;;;;;;;111.88;104.95;;;;;;;;;;10229988;28;20041;-71
2022/10/02 02:07:05;;;;;;;106.65;100.05;;;;;;;;;;10233244;28;20056;-71
2022/10/02 02:12:13;;;;;;;108.78;102.20;;;;;;;;;;10228786;28;20038;-72
2022/10/02 02:17:13;;;;;;;113.80;106.75;;;;;;;;;;10227953;28;20047;-72
2022/10/02 02:22:42;;;;;;;113.97;106.90;;;;;;;;;;10233029;28;20045;-71
2022/10/02 02:27:43;;;;;;;114.15;107.43;;;;;;;;;;10198432;28;20046;-72
2022/10/02 02:32:43;;;;;;;110.70;103.70;;;;;;;;;;10227731;28;20399;-71
2022/10/02 02:37:41;;;;;;;110.57;103.55;;;;;;;;;;10239800;28;20128;-71
2022/10/02 02:42:40;;;;;;;110.25;103.40;;;;;;;;;;10236874;28;20042;-72
2022/10/02 02:47:40;;;;;;;106.38;99.30;;;;;;;;;;10237816;28;20052;-71
2022/10/02 02:52:49;;;;;;;108.70;101.70;;;;;;;;;;10238550;28;20052;-71
2022/10/02 02:57:52;;;;;;;110.43;103.03;;;;;;;;;;10243685;28;20061;-71
2022/10/02 03:02:49;;;;;;;110.00;103.47;;;;;;;;;;10230747;28;20531;-71
2022/10/02 03:07:51;;;;;;;114.18;107.05;;;;;;;;;;10226502;28;20055;-72
2022/10/02 03:12:58;;;;;;;111.45;104.47;;;;;;;;;;10235791;28;20407;-72
2022/10/02 03:18:09;;;;;;;116.47;108.72;;;;;;;;;;10236701;28;20071;-72
2022/10/02 03:23:06;;;;;;;117.15;109.97;;;;;;;;;;10236722;28;20511;-72
2022/10/02 03:28:05;;;;;;;117.25;110.05;;;;;;;;;;10231693;28;20133;-71
2022/10/02 03:33:03;;;;;;;115.20;107.85;;;;;;;;;;10237501;28;20060;-71
2022/10/02 03:38:02;;;;;;;117.78;110.70;;;;;;;;;;10229236;28;20048;-72
2022/10/02 03:42:59;;;;;;;119.03;111.80;;;;;;;;;;10231541;28;20046;-72
2022/10/02 03:47:55;;;;;;;119.78;112.40;;;;;;;;;;10226317;28;20055;-72
2022/10/02 03:52:52;;;;;;;118.15;111.07;;;;;;;;;;10228699;28;20052;-71
2022/10/02 03:57:48;;;;;;;116.38;109.22;;;;;;;;;;10233371;28;20037;-71
2022/10/02 04:02:47;;;;;;;117.05;109.82;;;;;;;;;;10234299;28;20443;-72
2022/10/02 04:07:45;;;;;;;116.53;108.97;;;;;;;;;;10230513;28;20050;-72
2022/10/02 04:12:49;;;;;;;115.03;108.03;;;;;;;;;;10231939;28;20636;-71
2022/10/02 04:17:52;;;;;;;112.55;105.45;;;;;;;;;;10225852;28;20056;-72
2022/10/02 04:23:13;;;;;;;112.00;104.85;;;;;;;;;;10233865;28;20068;-72
2022/10/02 04:28:17;;;;;;;114.50;107.07;;;;;;;;;;10232698;28;20049;-72
2022/10/02 04:33:17;;;;;;;111.80;104.68;;;;;;;;;;10235120;28;20049;-71
2022/10/02 04:38:26;;;;;;;110.85;103.65;;;;;;;;;;10230714;28;20060;-72
2022/10/02 04:43:29;;;;;;;114.70;107.32;;;;;;;;;;10232800;28;20052;-72
2022/10/02 04:48:37;;;;;;;120.50;112.95;;;;;;;;;;10227943;28;20041;-72
2022/10/02 04:53:49;;;;;;;119.95;112.65;;;;;;;;;;10227781;28;20744;-71
2022/10/02 04:58:51;;;;;;;117.43;109.82;;;;;;;;;;10222599;28;20392;-72
2022/10/02 05:03:59;;;;;;;119.43;112.38;;;;;;;;;;10225120;28;20070;-72
2022/10/02 05:09:05;;;;;;;118.55;110.57;;;;;;;;;;10221430;28;20072;-72
2022/10/02 05:14:05;;;;;;;116.15;108.50;;;;;;;;;;10229188;28;20038;-72
2022/10/02 05:19:15;;;;;;;118.40;110.90;;;;;;;;;;10220675;28;20055;-72
2022/10/02 05:24:11;;;;;;;116.85;109.22;;;;;;;;;;10232489;28;20496;-71
2022/10/02 05:29:12;;;;;;;117.80;110.40;;;;;;;;;;10234700;28;20052;-72
2022/10/02 05:34:30;;;;;;;115.20;107.90;;;;;;;;;;10234728;28;20097;-72
2022/10/02 05:39:31;;;;;;;113.70;106.35;;;;;;;;;;10237951;28;20059;-72
2022/10/02 05:44:38;;;;;;;113.93;106.38;;;;;;;;;;10241245;28;20045;-72
2022/10/02 05:49:40;;;;;;;115.30;107.78;;;;;;;;;;10233517;28;20064;-72
2022/10/02 05:54:49;;;;;;;114.25;106.85;;;;;;;;;;10237545;28;20072;-71
2022/10/02 06:00:05;;;;;;;119.13;111.43;;;;;;;;;;10230669;28;20141;-72
2022/10/02 06:05:05;;;;;;;114.38;106.65;;;;;;;;;;10263134;28;20132;-69
2022/10/02 06:10:06;;;;;;;113.22;105.82;;;;;;;;;;10270199;28;20047;-70
2022/10/02 06:15:06;;;;;;;118.20;110.32;;;;;;;;;;10275191;28;20045;-71
2022/10/02 06:20:05;;;;;;;113.28;105.93;;;;;;;;;;10276845;28;20045;-70
2022/10/02 06:25:05;;;;;;;105.90;99.10;;;;;;;;;;10268824;28;20414;-70
2022/10/02 06:30:04;;;;;;;112.10;104.82;;;;;;;;;;10268654;28;20041;-71
2022/10/02 06:35:02;;;;;;;111.82;104.70;;;;;;;;;;10274818;28;20072;-72
2022/10/02 06:39:59;;;;;;;111.95;104.85;;;;;;;;;;10271842;28;20422;-72
2022/10/02 06:45:07;;;;;;;121.05;113.78;;;;;;;;;;10266253;28;20102;-72
2022/10/02 06:50:15;;;;;;;123.95;116.85;;;;;;;;;;10262171;28;20055;-71
2022/10/02 06:55:20;;;;;;;124.25;117.32;;;;;;;;;;10263065;28;20053;-72
2022/10/02 07:00:17;;;;;;;109.00;103.10;;;;;;;;;;10267911;28;20056;-71
2022/10/02 07:05:13;;;;;;;108.47;102.82;;;;;;;;;;10223523;28;20055;-72
2022/10/02 07:10:30;;;;;;;96.07;91.03;;;;;;;;;;10226581;28;20652;-72
2022/10/02 07:15:34;;;;;;;101.38;96.22;;;;;;;;;;10236167;28;20044;-72
2022/10/02 07:20:33;;;;;;;100.05;94.60;;;;;;;;;;10231379;28;20049;-71
2022/10/02 07:25:29;;;;;;;103.68;98.07;;;;;;;;;;10235664;28;20043;-72
2022/10/02 07:30:30;;;;;;;94.50;89.30;;;;;;;;;;10237055;28;20439;-71
2022/10/02 07:35:45;;;;;;;88.93;84.10;;;;;;;;;;10232728;28;20052;-71
2022/10/02 07:40:45;;;;;;;78.55;74.25;;;;;;;;;;10234117;28;20045;-72
2022/10/02 07:45:47;;;;;;;69.28;64.90;;;;;;;;;;10234440;28;20442;-71
2022/10/02 07:51:45;;;;;;;69.72;65.72;;;;;;;;;;10266913;28;20049;-71
2022/10/02 07:56:22;;;;;;;76.05;71.38;;;;;;;;;;10233191;28;20041;-71
2022/10/02 08:01:20;;;;;;;81.43;76.75;;;;;;;;;;10228817;28;20502;-72
2022/10/02 08:06:17;;;;;;;82.88;77.97;;;;;;;;;;10234417;28;20044;-72
2022/10/02 08:11:20;;;;;;;88.80;83.45;;;;;;;;;;10240304;28;20550;-72
2022/10/02 08:16:18;;;;;;;84.72;79.13;;;;;;;;;;10229779;28;20045;-71
2022/10/02 08:21:16;;;;;;;84.90;78.97;;;;;;;;;;10227474;28;20046;-72
2022/10/02 08:26:23;;;;;;;93.70;87.90;;;;;;;;;;10233681;28;20045;-72
2022/10/02 08:31:21;;;;;;;95.30;89.50;;;;;;;;;;10233603;28;20045;-72
2022/10/02 08:36:25;;;;;;;88.25;82.57;;;;;;;;;;10239875;28;20046;-71
2022/10/02 08:41:30;;;;;;;82.95;77.10;;;;;;;;;;10257014;28;20042;-71
2022/10/02 08:46:32;;;;;;;84.93;79.03;;;;;;;;;;10217635;28;20642;-71
2022/10/02 08:51:35;;;;;;;90.32;84.38;;;;;;;;;;10227922;28;20460;-71
2022/10/02 08:56:34;;;;;;;90.40;84.60;;;;;;;;;;10225370;28;20042;-71
2022/10/02 09:01:49;;;;;;;88.90;82.70;;;;;;;;;;10240638;28;20045;-71
2022/10/02 09:06:48;;;;;;;90.88;84.93;;;;;;;;;;10227335;28;20084;-72
2022/10/02 09:11:50;;;;;;;94.55;88.10;;;;;;;;;;10221883;28;20049;-71
2022/10/02 09:17:05;;;;;;;87.88;81.95;;;;;;;;;;10229433;28;20053;-71
2022/10/02 09:22:20;;;;;;;87.43;80.85;;;;;;;;;;10228637;28;20041;-71
2022/10/02 09:27:19;;;;;;;93.78;87.45;;;;;;;;;;10223810;28;20411;-71
2022/10/02 09:32:25;;;;;;;96.50;90.32;;;;;;;;;;10228311;28;20045;-72
2022/10/02 09:37:27;;;;;;;96.63;89.93;;;;;;;;;;10231256;28;20542;-72
2022/10/02 09:42:35;;;;;;;97.18;90.78;;;;;;;;;;10231833;28;20037;-72
2022/10/02 09:48:03;;;;;;;97.57;90.57;;;;;;;;;;10223598;28;20045;-72
2022/10/02 09:53:06;;;;;;;99.00;92.30;;;;;;;;;;10227200;28;20060;-72
2022/10/02 09:58:25;;;;;;;109.18;102.28;;;;;;;;;;10226323;28;20046;-72
2022/10/02 10:03:37;;;;;;;107.43;100.97;;;;;;;;;;10228552;28;20052;-72
2022/10/02 10:08:36;;;;;;;116.13;108.05;;;;;;;;;;10222603;28;20037;-72
2022/10/02 10:13:51;;;;;;;114.20;107.15;;;;;;;;;;10229395;28;20041;-73
2022/10/02 10:19:06;;;;;;;108.97;102.75;;;;;;;;;;10231048;28;20042;-72
2022/10/02 10:24:25;;;;;;;107.28;100.30;;;;;;;;;;10227545;28;20049;-72
2022/10/02 10:29:21;;;;;;;104.43;98.35;;;;;;;;;;10229251;28;20037;-72
2022/10/02 10:34:44;;;;;;;107.07;100.85;;;;;;;;;;10232667;28;20419;-72
2022/10/02 10:39:41;;;;;;;;;;;;;;;;;;10223812;28;20081;-72
2022/10/02 10:44:53;;;;;;;92.45;87.18;;;;;;;;;;10229070;28;20519;-72
2022/10/02 10:50:02;;;;;;;60.85;57.45;;;;;;;;;;10235817;28;20049;-72
2022/10/02 10:54:58;;;;;;;45.63;42.30;;;;;;;;;;10237855;28;21456;-72
2022/10/02 11:00:13;;;;;;;46.45;43.40;;;;;;;;;;10238520;28;20041;-72
2022/10/02 11:05:36;;;;;;;31.30;29.08;;;;;;;;;;10239680;28;20048;-72
2022/10/02 11:10:39;;;;;;;28.87;25.50;;;;;;;;;;10228266;28;20117;-72
2022/10/02 11:15:39;;;;;;;26.15;23.60;;;;;;;;;;10238968;28;20044;-72
2022/10/02 11:20:49;;;;;;;20.80;18.73;;;;;;;;;;10235309;28;20037;-72
2022/10/02 11:26:04;;;;;;;14.63;12.00;;;;;;;;;;10222040;28;20603;-72
2022/10/02 11:31:20;;;;;;;14.65;10.82;;;;;;;;;;10234227;28;20045;-71
2022/10/02 11:36:22;;;;;;;14.02;8.25;;;;;;;;;;10224322;28;20120;-71
2022/10/02 11:41:19;;;;;;;12.20;9.27;;;;;;;;;;10233900;28;20042;-71
2022/10/02 11:46:20;;;;;;;18.00;10.60;;;;;;;;;;10226328;28;20050;-71
2022/10/02 11:51:36;;;;;;;13.80;11.18;;;;;;;;;;10230844;28;20494;-71
2022/10/02 11:56:33;;;;;;;11.55;10.30;;;;;;;;;;10227305;28;20088;-71
2022/10/02 12:01:42;;;;;;;14.23;11.63;;;;;;;;;;10239013;28;20060;-70
2022/10/02 12:06:47;;;;;;;15.77;13.00;;;;;;;;;;10228306;28;20052;-72
2022/10/02 12:11:48;;;;;;;17.30;15.48;;;;;;;;;;10229365;28;20048;-71
2022/10/02 12:16:55;;;;;;;25.42;23.38;;;;;;;;;;10232646;28;20048;-72
2022/10/02 12:27:35;;;;;;;26.17;24.17;;;;;;;;;;10230082;28;20046;-72
2022/10/02 12:32:36;;;;;;;22.75;20.80;;;;;;;;;;10227626;28;20046;-71
2022/10/02 12:37:35;;;;;;;22.98;10.50;;;;;;;;;;10230213;28;20049;-71
2022/10/02 12:42:56;;;;;;;15.27;8.55;;;;;;;;;;10225532;28;20041;-71
2022/10/02 12:47:52;;;;;;;18.15;9.40;;;;;;;;;;10228939;28;20045;-71
2022/10/02 12:53:06;;;;;;;15.27;7.50;;;;;;;;;;10231286;28;20056;-71
2022/10/02 12:58:03;;;;;;;14.23;7.40;;;;;;;;;;10237889;28;20052;-73
2022/10/02 13:03:00;;;;;;;13.98;7.65;;;;;;;;;;10231938;28;20492;-72
2022/10/02 13:08:14;;;;;;;13.88;6.55;;;;;;;;;;10221979;28;20120;-72
2022/10/02 13:13:20;;;;;;;19.88;8.63;;;;;;;;;;10229006;28;20049;-72
2022/10/02 13:18:25;;;;;;;17.25;7.70;;;;;;;;;;10234084;28;20053;-71
2022/10/02 13:23:25;;;;;;;20.40;8.25;;;;;;;;;;10228172;28;20045;-71
2022/10/02 13:28:24;;;;;;;13.18;7.88;;;;;;;;;;10224580;28;20040;-71
2022/10/02 13:33:36;;;;;;;16.77;8.85;;;;;;;;;;10223913;28;20053;-72
2022/10/02 13:38:51;;;;;;;17.98;8.48;;;;;;;;;;10228000;28;20530;-71
2022/10/02 13:43:57;;;;;;;15.23;8.57;;;;;;;;;;10226934;28;20723;-72
2022/10/02 13:49:05;;;;;;;24.58;8.85;;;;;;;;;;10227666;28;20046;-71
2022/10/02 13:54:08;;;;;;;12.40;7.53;;;;;;;;;;10224948;28;20500;-71
2022/10/02 13:59:10;;;;;;;17.25;6.93;;;;;;;;;;10232050;28;20060;-72
2022/10/02 14:04:13;;;;;;;15.60;7.32;;;;;;;;;;10233347;28;20052;-71
2022/10/02 14:09:24;;;;;;;16.25;6.93;;;;;;;;;;10231045;28;20048;-71
2022/10/02 14:14:30;;;;;;;14.82;6.80;;;;;;;;;;10222589;28;20046;-71
2022/10/02 14:19:32;;;;;;;17.27;8.25;;;;;;;;;;10221533;28;20041;-71
2022/10/02 14:24:58;;;;;;;17.15;8.05;;;;;;;;;;10234040;28;20077;-72
2022/10/02 14:30:00;;;;;;;15.70;7.82;;;;;;;;;;10235776;28;20048;-71
2022/10/02 14:35:01;;;;;;;11.57;7.35;;;;;;;;;;10241618;28;20057;-71
2022/10/02 14:40:00;;;;;;;16.95;7.55;;;;;;;;;;10237690;28;20053;-71
2022/10/02 14:45:05;;;;;;;15.30;7.55;;;;;;;;;;10231838;28;20406;-71
2022/10/02 14:50:04;;;;;;;17.20;8.25;;;;;;;;;;10230805;28;20041;-70
2022/10/02 14:55:03;;;;;;;18.23;8.10;;;;;;;;;;10239640;28;20057;-71
2022/10/02 15:00:12;;;;;;;15.02;8.63;;;;;;;;;;10234904;28;20049;-71
2022/10/02 15:05:31;;;;;;;17.45;7.65;;;;;;;;;;10275253;28;20415;-70
2022/10/02 15:10:33;;;;;;;13.13;6.70;;;;;;;;;;10283776;28;20491;-71
2022/10/02 15:15:32;;;;;;;14.07;7.20;;;;;;;;;;10267934;28;20054;-71
2022/10/02 15:20:32;;;;;;;25.80;8.23;;;;;;;;;;10273778;28;20048;-71
2022/10/02 15:26:01;;;;;;;12.15;7.45;;;;;;;;;;10286770;28;20044;-71
2022/10/02 15:31:04;;;;;;;18.25;8.70;;;;;;;;;;10248821;28;20048;-71
2022/10/02 15:36:16;;;;;;;16.75;7.63;;;;;;;;;;10269742;28;20037;-71
2022/10/02 15:41:37;;;;;;;14.70;7.75;;;;;;;;;;10278774;28;20103;-71
2022/10/02 15:46:36;;;;;;;15.45;7.45;;;;;;;;;;10259926;28;20069;-71
2022/10/02 15:51:35;;;;;;;16.15;7.50;;;;;;;;;;10226512;28;20399;-71
2022/10/02 15:56:38;;;;;;;11.82;7.78;;;;;;;;;;10229232;28;20041;-71
2022/10/02 16:01:35;;;;;;;18.40;7.95;;;;;;;;;;10224548;28;20416;-71
2022/10/02 16:06:56;;;;;;;15.15;9.93;;;;;;;;;;10231078;28;20051;-71
2022/10/02 16:11:56;;;;;;;21.25;9.48;;;;;;;;;;10235228;28;20056;-71
2022/10/02 16:17:02;;;;;;;21.92;10.55;;;;;;;;;;10227441;28;20037;-70
2022/10/02 16:22:04;;;;;;;20.63;10.20;;;;;;;;;;10230415;28;20496;-70
2022/10/02 16:27:00;;;;;;;26.35;9.93;;;;;;;;;;10227556;28;20053;-71
2022/10/02 16:31:59;;;;;;;18.35;9.10;;;;;;;;;;10224007;28;20092;-70
2022/10/02 16:37:00;;;;;;;26.67;11.55;;;;;;;;;;10230251;28;20053;-70
2022/10/02 16:42:00;;;;;;;24.63;12.15;;;;;;;;;;10234470;28;20044;-70
2022/10/02 16:47:00;;;;;;;22.25;12.85;;;;;;;;;;10226246;28;20045;-71
2022/10/02 16:51:56;;;;;;;19.67;11.45;;;;;;;;;;10232463;28;20050;-70
2022/10/02 16:57:03;;;;;;;23.30;13.50;;;;;;;;;;10223542;28;20044;-71
2022/10/02 17:02:09;;;;;;;25.88;13.70;;;;;;;;;;10227426;28;20490;-70
2022/10/02 17:07:14;;;;;;;19.50;13.63;;;;;;;;;;10232608;28;20514;-71
2022/10/02 17:12:29;;;;;;;21.35;12.95;;;;;;;;;;10235050;28;20115;-71
2022/10/02 17:17:28;;;;;;;24.70;14.82;;;;;;;;;;10226318;28;20129;-71
2022/10/02 17:22:32;;;;;;;26.08;15.02;;;;;;;;;;10222945;28;20045;-71
2022/10/02 17:27:31;;;;;;;22.83;14.52;;;;;;;;;;10227494;28;20042;-70
2022/10/02 17:32:45;;;;;;;21.08;14.20;;;;;;;;;;10222058;28;20049;-71
2022/10/02 17:37:41;;;;;;;22.38;13.68;;;;;;;;;;10226480;28;20128;-71
2022/10/02 17:42:45;;;;;;;22.35;14.20;;;;;;;;;;10226177;28;20107;-71
2022/10/02 17:47:44;;;;;;;20.05;14.73;;;;;;;;;;10227664;28;20490;-71
2022/10/02 17:58:18;;;;;;;25.23;15.70;;;;;;;;;;10219045;28;20057;-70
2022/10/02 18:03:40;;;;;;;30.90;17.13;;;;;;;;;;10228356;28;20523;-70
2022/10/02 18:08:45;;;;;;;28.00;16.30;;;;;;;;;;10210816;28;20048;-70
2022/10/02 18:13:47;;;;;;;25.67;18.08;;;;;;;;;;10226393;28;20055;-70
2022/10/02 18:19:09;;;;;;;22.33;16.65;;;;;;;;;;10229573;28;20053;-70
2022/10/02 18:24:30;;;;;;;35.13;18.83;;;;;;;;;;10223304;28;20052;-70
2022/10/02 18:29:37;;;;;;;29.80;19.13;;;;;;;;;;10224466;28;20042;-70
2022/10/02 18:34:52;;;;;;;21.15;18.75;;;;;;;;;;10225601;28;20045;-70
2022/10/02 18:39:53;;;;;;;23.58;20.92;;;;;;;;;;10229605;28;20048;-70
2022/10/02 18:45:05;;;;;;;26.00;19.48;;;;;;;;;;10243594;28;20100;-70
2022/10/02 18:50:15;;;;;;;23.70;20.98;;;;;;;;;;10223051;28;20046;-70
2022/10/02 18:55:17;;;;;;;28.48;21.50;;;;;;;;;;10226199;28;20802;-69
2022/10/02 19:00:17;;;;;;;28.48;23.35;;;;;;;;;;10232493;28;20053;-69
2022/10/02 19:05:29;;;;;;;23.70;21.13;;;;;;;;;;10227518;28;20519;-71
2022/10/02 19:10:35;;;;;;;26.15;23.23;;;;;;;;;;10231581;28;20087;-70
2022/10/02 19:15:32;;;;;;;27.33;21.92;;;;;;;;;;10228977;28;20056;-70
2022/10/02 19:20:49;;;;;;;36.50;24.00;;;;;;;;;;10239240;28;20055;-70
2022/10/02 19:25:46;;;;;;;29.77;25.25;;;;;;;;;;10230882;28;20395;-70
2022/10/02 19:30:45;;;;;;;29.75;24.92;;;;;;;;;;10240455;28;20072;-70
2022/10/02 19:35:42;;;;;;;30.02;26.90;;;;;;;;;;10231188;28;20042;-70
2022/10/02 19:40:39;;;;;;;32.83;29.75;;;;;;;;;;10239379;28;20045;-70
2022/10/02 19:45:39;;;;;;;36.90;33.83;;;;;;;;;;10238125;28;20414;-69
2022/10/02 19:50:39;;;;;;;43.28;39.13;;;;;;;;;;10235574;28;20095;-69
2022/10/02 19:55:38;;;;;;;48.13;44.22;;;;;;;;;;10228932;28;20038;-69
2022/10/02 20:00:36;;;;;;;48.75;44.92;;;;;;;;;;10243491;28;20045;-70
2022/10/02 20:05:34;;;;;;;52.75;48.83;;;;;;;;;;10229169;28;20048;-70
2022/10/02 20:10:33;;;;;;;55.97;50.67;;;;;;;;;;10233023;28;20045;-70
2022/10/02 20:20:51;;;;;;;61.10;56.28;;;;;;;;;;10230268;28;20090;-70
2022/10/02 20:25:51;;;;;;;59.97;55.05;;;;;;;;;;10238238;28;20083;-70
2022/10/02 20:30:49;;;;;;;58.70;54.25;;;;;;;;;;10235587;28;20064;-70
2022/10/02 20:36:00;;;;;;;56.35;51.95;;;;;;;;;;10224442;28;20049;-70
2022/10/02 20:40:57;;;;;;;58.72;54.40;;;;;;;;;;10239283;28;20057;-70
2022/10/02 20:46:22;;;;;;;65.57;60.05;;;;;;;;;;10231641;28;20050;-69
2022/10/02 20:51:28;;;;;;;67.43;62.75;;;;;;;;;;10227207;28;20103;-70
2022/10/02 20:56:28;;;;;;;69.40;64.55;;;;;;;;;;10219478;28;20042;-70
2022/10/02 21:01:36;;;;;;;69.93;65.50;;;;;;;;;;10227373;28;20068;-71
2022/10/02 21:06:38;;;;;;;66.65;62.53;;;;;;;;;;10234691;28;20091;-70
2022/10/02 21:12:05;;;;;;;67.28;62.85;;;;;;;;;;10230283;28;20044;-70
2022/10/02 21:17:07;;;;;;;73.80;68.60;;;;;;;;;;10234461;28;20592;-71
2022/10/02 21:22:15;;;;;;;74.80;70.38;;;;;;;;;;10225637;28;20068;-71
2022/10/02 21:27:27;;;;;;;71.18;66.03;;;;;;;;;;10225534;28;20049;-71
2022/10/02 21:32:29;;;;;;;73.30;67.88;;;;;;;;;;10230152;28;20414;-71
2022/10/02 21:37:37;;;;;;;75.00;69.85;;;;;;;;;;10232921;28;20045;-71
2022/10/02 21:42:52;;;;;;;80.53;75.00;;;;;;;;;;10226212;28;21661;-70
2022/10/02 21:47:49;;;;;;;79.80;73.38;;;;;;;;;;10232021;28;20557;-70
2022/10/02 21:53:04;;;;;;;77.45;72.20;;;;;;;;;;10228464;28;20050;-71
2022/10/02 21:58:14;;;;;;;78.93;73.40;;;;;;;;;;10228492;28;20577;-71
2022/10/02 22:03:26;;;;;;;76.03;71.03;;;;;;;;;;10227549;28;20080;-71
2022/10/02 22:08:31;;;;;;;75.65;70.15;;;;;;;;;;10214051;28;20044;-71
2022/10/02 22:13:34;;;;;;;83.70;78.53;;;;;;;;;;10223711;28;20158;-70
2022/10/02 22:18:33;;;;;;;82.70;77.43;;;;;;;;;;10231331;28;20705;-69
2022/10/02 22:23:36;;;;;;;82.32;75.55;;;;;;;;;;10222704;28;20051;-70
2022/10/02 22:28:42;;;;;;;83.38;77.53;;;;;;;;;;10221088;28;20042;-71
2022/10/02 22:33:42;;;;;;;84.78;78.45;;;;;;;;;;10221999;28;20046;-71
2022/10/02 22:38:42;;;;;;;83.13;77.68;;;;;;;;;;10226484;28;20048;-71
2022/10/02 22:43:50;;;;;;;92.75;86.32;;;;;;;;;;10225150;28;20496;-71
2022/10/02 22:48:50;;;;;;;84.85;78.70;;;;;;;;;;10238057;28;20729;-71
2022/10/02 22:53:46;;;;;;;86.13;80.93;;;;;;;;;;10238355;28;20049;-71
2022/10/02 22:58:50;;;;;;;80.30;74.72;;;;;;;;;;10232973;28;20056;-71
2022/10/02 23:03:56;;;;;;;86.22;80.55;;;;;;;;;;10228909;28;20042;-71
2022/10/02 23:08:55;;;;;;;91.32;84.90;;;;;;;;;;10234367;28;20503;-71
2022/10/02 23:13:55;;;;;;;92.53;86.50;;;;;;;;;;10223683;28;20411;-70
2022/10/02 23:18:58;;;;;;;94.13;87.63;;;;;;;;;;10236345;28;20053;-70
2022/10/02 23:24:01;;;;;;;92.53;86.00;;;;;;;;;;10232465;28;20049;-70
2022/10/02 23:29:06;;;;;;;92.68;86.30;;;;;;;;;;10232371;28;20052;-69
2022/10/02 23:34:11;;;;;;;85.28;79.70;;;;;;;;;;10229369;28;20045;-70
2022/10/02 23:39:29;;;;;;;98.25;91.55;;;;;;;;;;10235504;28;20080;-69
2022/10/02 23:44:48;;;;;;;93.93;88.03;;;;;;;;;;10234437;28;20037;-70
2022/10/02 23:49:45;;;;;;;91.30;85.32;;;;;;;;;;10244258;28;20041;-71
2022/10/02 23:54:53;;;;;;;89.75;83.90;;;;;;;;;;10219145;28;20053;-71
